Time;durP1;ratioP1;P1;durP2;ratioP2;P2;SDS_P1;SDS_P2;PMS_P1;PMS_P2;Temp;Humidity;BMP_temperature;BMP_pressure;BME280_temperature;BME280_humidity;BME280_pressure;Samples;Min_cycle;Max_cycle;Signal;HPM_P1;HPM_P2
2022/08/19 00:02:36;;;;;;;;;;;26.70;45.30;;;25.29;46.29;100567.72;12240611;19;19943;-89
2022/08/19 00:06:39;;;;;;;;;;;26.80;45.40;;;25.34;46.45;100579.50;12254380;19;19919;-88
2022/08/19 00:10:41;;;;;;;;;;;26.80;45.10;;;25.35;46.57;100570.47;12253434;19;20341;-88
2022/08/19 00:14:42;;;;;;;;;;;26.80;45.10;;;25.40;46.69;100572.59;12253111;19;19917;-88
2022/08/19 00:18:44;;;;;;;;;;;26.80;44.70;;;25.28;46.63;100563.41;12254407;19;19919;-88
2022/08/19 00:22:47;;;;;;;;;;;26.70;44.90;;;25.15;46.89;100532.78;12250472;19;19919;-88
2022/08/19 00:26:48;;;;;;;;;;;26.60;45.20;;;24.76;46.86;100462.72;12255063;19;20248;-88
2022/08/19 00:30:51;;;;;;;;;;;26.60;45.40;;;25.03;46.98;100512.84;12251310;19;19926;-88
2022/08/19 00:34:53;;;;;;;;;;;26.60;45.20;;;24.83;46.99;100485.84;12254379;19;20358;-88
2022/08/19 00:38:55;;;;;;;;;;;26.70;46.00;;;24.75;47.42;100483.28;12253793;19;19935;-88
2022/08/19 00:42:56;;;;;;;;;;;26.50;45.90;;;25.01;47.00;100546.94;12249098;19;19947;-88
2022/08/19 00:46:58;;;;;;;;;;;26.40;45.70;;;24.70;46.92;100513.19;12254755;19;19930;-88
2022/08/19 00:51:01;;;;;;;;;;;26.50;46.10;;;25.08;47.02;100581.78;12250142;19;19939;-88
2022/08/19 00:55:07;;;;;;;;;;;26.50;46.00;;;24.79;47.59;100535.31;12254869;19;19967;-88
2022/08/19 00:59:10;;;;;;;;;;;26.50;46.10;;;24.65;47.11;100531.59;12254224;19;19962;-87
2022/08/19 01:03:18;;;;;;;;;;;26.40;45.90;;;24.69;47.49;100521.41;12254241;19;20036;-89
2022/08/19 01:07:20;;;;;;;;;;;26.40;45.70;;;24.71;47.21;100576.28;12255835;19;19919;-88
2022/08/19 01:11:21;;;;;;;;;;;26.60;46.40;;;24.75;47.82;100578.59;12251675;19;19915;-88
2022/08/19 01:15:30;;;;;;;;;;;26.30;46.20;;;24.83;47.48;100575.84;12251565;19;19918;-88
2022/08/19 01:19:40;;;;;;;;;;;26.30;46.20;;;24.61;48.05;100543.66;12254676;19;19953;-88
2022/08/19 01:23:43;;;;;;;;;;;26.20;45.40;;;24.47;47.45;100518.59;12251698;19;20318;-88
2022/08/19 01:27:47;;;;;;;;;;;26.10;45.20;;;24.39;47.98;100510.63;12252633;19;19943;-89
2022/08/19 01:31:53;;;;;;;;;;;26.00;45.50;;;24.33;47.99;100505.16;12247312;19;19955;-88
2022/08/19 01:36:02;;;;;;;;;;;25.90;46.00;;;24.16;47.92;100473.28;12243031;19;19968;-88
2022/08/19 01:40:04;;;;;;;;;;;25.80;47.10;;;24.01;47.98;100443.06;12248797;19;19970;-90
2022/08/19 01:44:07;;;;;;;;;;;25.70;46.50;;;24.17;48.18;100468.75;12250272;19;19933;-90
2022/08/19 01:48:09;;;;;;;;;;;25.70;46.80;;;24.15;48.23;100484.97;12252007;19;19918;-88
2022/08/19 01:52:11;;;;;;;;;;;25.90;46.30;;;24.20;48.15;100498.59;12248851;19;19932;-88
2022/08/19 01:56:13;;;;;;;;;;;25.70;46.40;;;24.01;48.12;100461.75;12250555;19;19953;-88
2022/08/19 02:00:16;;;;;;;;;;;25.70;46.80;;;23.95;48.45;100441.09;12249887;19;19907;-89
2022/08/19 02:04:18;;;;;;;;;;;25.70;47.00;;;24.19;48.31;100472.91;12248981;19;20304;-88
2022/08/19 02:08:19;;;;;;;;;;;25.70;46.90;;;23.95;48.58;100422.44;12250657;19;19932;-89
2022/08/19 02:12:21;;;;;;;;;;;25.80;46.70;;;23.89;48.58;100428.50;12247019;19;19918;-89
2022/08/19 02:16:23;;;;;;;;;;;25.70;46.70;;;23.93;48.53;100435.13;12248757;19;19915;-88
2022/08/19 02:20:24;;;;;;;;;;;25.60;46.40;;;23.75;48.32;100398.94;12248923;19;19915;-88
2022/08/19 02:24:27;;;;;;;;;;;25.60;46.90;;;24.00;48.52;100425.38;12248793;19;19955;-89
2022/08/19 02:28:28;;;;;;;;;;;25.60;46.80;;;23.48;48.62;100360.28;12247091;19;19918;-87
2022/08/19 02:32:30;;;;;;;;;;;25.50;46.80;;;23.92;48.47;100436.13;12244534;19;19918;-88
2022/08/19 02:36:31;;;;;;;;;;;25.60;46.80;;;23.43;48.93;100375.97;12246969;19;20334;-88
2022/08/19 02:40:34;;;;;;;;;;;25.50;46.50;;;23.99;49.06;100471.75;12246030;19;20266;-88
2022/08/19 02:44:35;;;;;;;;;;;25.60;46.90;;;23.55;49.22;100403.88;12247307;19;19913;-88
2022/08/19 02:48:37;;;;;;;;;;;25.40;47.10;;;23.74;48.92;100431.94;12248273;19;19915;-89
2022/08/19 02:52:38;;;;;;;;;;;25.40;47.70;;;23.36;48.82;100386.53;12243911;19;19942;-89
2022/08/19 02:56:42;;;;;;;;;;;25.40;47.50;;;23.92;49.29;100486.81;12245760;19;19932;-88
2022/08/19 03:00:45;;;;;;;;;;;25.40;47.30;;;23.88;49.33;100478.34;12243144;19;19919;-89
2022/08/19 03:04:47;;;;;;;;;;;25.40;47.60;;;23.43;49.08;100405.28;12245514;19;20275;-89
2022/08/19 03:08:49;;;;;;;;;;;25.40;47.70;;;23.74;49.18;100447.13;12244773;19;19974;-89
2022/08/19 03:12:50;;;;;;;;;;;25.40;47.60;;;23.90;49.35;100457.66;12242748;19;20310;-89
2022/08/19 03:16:52;;;;;;;;;;;25.40;47.90;;;23.60;49.41;100419.31;12245218;19;19923;-89
2022/08/19 03:20:54;;;;;;;;;;;25.40;47.80;;;23.90;49.45;100452.34;12244398;19;19923;-89
2022/08/19 03:24:56;;;;;;;;;;;25.40;47.50;;;23.81;49.26;100440.88;12246436;19;19974;-90
2022/08/19 03:29:00;;;;;;;;;;;25.40;47.60;;;23.76;49.79;100429.09;12244774;19;20325;-89
2022/08/19 03:33:02;;;;;;;;;;;25.30;47.20;;;23.61;49.67;100416.50;12241931;19;20971;-89
2022/08/19 03:37:07;;;;;;;;;;;25.30;47.60;;;23.73;49.47;100445.44;12245156;19;19949;-89
2022/08/19 03:41:11;;;;;;;;;;;25.40;47.50;;;23.74;49.74;100461.28;12255170;19;20322;-89
2022/08/19 03:45:13;;;;;;;;;;;25.30;47.70;;;23.47;49.85;100403.94;12256735;19;19930;-89
2022/08/19 03:49:15;;;;;;;;;;;25.30;48.00;;;23.56;49.54;100423.38;12256969;19;20331;-89
2022/08/19 03:53:17;;;;;;;;;;;25.30;47.80;;;23.78;49.90;100462.56;12257124;19;19907;-89
2022/08/19 03:57:18;;;;;;;;;;;25.30;47.90;;;23.26;49.71;100375.25;12257320;19;19923;-89
2022/08/19 04:01:22;;;;;;;;;;;25.30;48.00;;;23.73;50.06;100445.44;12254656;19;19921;-89
2022/08/19 04:05:24;;;;;;;;;;;25.30;48.30;;;23.58;49.92;100432.84;12257282;19;19907;-89
2022/08/19 04:09:26;;;;;;;;;;;25.30;48.30;;;23.62;50.12;100439.47;12256277;19;20259;-89
2022/08/19 04:13:27;;;;;;;;;;;25.30;48.00;;;23.69;49.73;100463.59;12257521;19;19923;-89
2022/08/19 04:17:28;;;;;;;;;;;25.30;48.30;;;23.28;50.10;100391.91;12259215;19;20325;-89
2022/08/19 04:21:30;;;;;;;;;;;25.30;48.50;;;23.90;50.06;100484.34;12254458;19;20329;-89
2022/08/19 04:25:37;;;;;;;;;;;25.30;47.90;;;23.28;50.36;100378.56;12257866;19;20274;-89
2022/08/19 04:29:40;;;;;;;;;;;25.30;48.10;;;23.34;50.05;100393.84;12257443;19;19915;-90
2022/08/19 04:33:41;;;;;;;;;;;25.30;48.20;;;23.77;49.93;100463.59;12254104;19;20243;-88
2022/08/19 04:37:43;;;;;;;;;;;25.30;48.10;;;23.91;50.16;100487.81;12253991;19;19911;-89
2022/08/19 04:46:11;;;;;;;;;;;25.30;47.90;;;23.84;50.18;100469.88;12248852;19;19923;-89
2022/08/19 04:50:13;;;;;;;;;;;25.30;48.20;;;23.37;50.36;100390.00;12246317;19;19918;-90
2022/08/19 04:54:17;;;;;;;;;;;25.30;48.50;;;23.80;50.44;100449.88;12246269;19;19919;-87
2022/08/19 04:58:18;;;;;;;;;;;25.30;48.60;;;23.80;50.45;100441.88;12245849;19;19950;-87
2022/08/19 05:02:20;;;;;;;;;;;25.40;48.40;;;23.80;50.51;100443.72;12246137;19;19922;-87
2022/08/19 05:06:22;;;;;;;;;;;25.50;48.60;;;23.58;50.48;100413.38;12250116;19;19918;-88
2022/08/19 05:10:23;;;;;;;;;;;25.30;48.50;;;23.65;50.27;100440.94;12247618;19;19915;-87
2022/08/19 05:14:25;;;;;;;;;;;25.50;48.80;;;23.55;50.77;100414.53;12242656;19;19936;-87
2022/08/19 05:22:47;;;;;;;;;;;25.30;48.50;;;23.87;50.75;100458.00;12243991;19;19990;-88
2022/08/19 05:26:51;;;;;;;;;;;25.30;48.40;;;23.64;50.73;100428.66;12249460;19;19922;-88
2022/08/19 05:30:55;;;;;;;;;;;25.30;48.70;;;23.77;50.50;100447.59;12246513;19;19948;-89
2022/08/19 05:34:56;;;;;;;;;;;25.30;48.50;;;23.61;50.56;100413.00;12250368;19;19915;-89
2022/08/19 05:38:58;;;;;;;;;;;25.30;48.40;;;23.58;50.43;100403.53;12249315;19;19933;-89
2022/08/19 05:42:59;;;;;;;;;;;25.30;48.50;;;23.86;50.65;100456.34;12246282;19;20334;-88
2022/08/19 05:47:04;;;;;;;;;;;25.50;48.40;;;23.83;50.93;100448.72;12247395;19;19919;-90
2022/08/19 05:51:06;;;;;;;;;;;25.30;48.80;;;23.85;50.86;100457.38;12246112;19;19956;-90
2022/08/19 05:55:07;;;;;;;;;;;25.40;48.60;;;23.91;50.77;100459.31;12248316;19;19986;-89
2022/08/19 05:59:11;;;;;;;;;;;25.40;49.00;;;23.93;50.87;100464.47;12247378;19;20317;-89
2022/08/19 06:03:12;;;;;;;;;;;25.40;49.20;;;23.96;51.01;100464.13;12244446;19;19918;-89
2022/08/19 06:07:15;;;;;;;;;;;25.40;49.00;;;23.72;50.86;100435.78;12247440;19;20338;-91
2022/08/19 06:11:22;;;;;;;;;;;25.50;49.30;;;24.10;50.89;100492.69;12244962;19;19931;-90
2022/08/19 06:15:25;;;;;;;;;;;25.50;49.50;;;23.97;51.17;100476.44;12248156;19;19915;-88
2022/08/19 06:19:29;;;;;;;;;;;25.50;49.10;;;23.95;50.95;100465.97;12246292;19;19953;-89
2022/08/19 06:23:30;;;;;;;;;;;25.60;48.90;;;23.76;51.19;100429.94;12247599;19;19938;-88
2022/08/19 06:27:33;;;;;;;;;;;25.60;49.20;;;24.03;51.04;100465.03;12242368;19;19947;-91
2022/08/19 06:31:36;;;;;;;;;;;25.80;49.50;;;24.16;51.38;100478.63;12238303;19;19923;-89
2022/08/19 06:35:40;;;;;;;;;;;25.60;49.60;;;24.14;51.26;100471.78;12242735;19;19918;-89
2022/08/19 06:39:43;;;;;;;;;;;25.70;48.80;;;24.08;51.72;100450.16;12239878;19;20341;-89
2022/08/19 06:43:46;;;;;;;;;;;25.70;49.00;;;24.23;51.60;100476.91;12240774;19;19923;-90
2022/08/19 06:47:48;;;;;;;;;;;25.70;49.30;;;24.24;51.54;100481.22;12237785;19;19968;-89
2022/08/19 06:51:50;;;;;;;;;;;25.70;49.40;;;24.13;51.37;100468.31;12237728;19;20285;-91
2022/08/19 06:55:59;;;;;;;;;;;25.80;49.70;;;24.04;51.33;100462.22;12240056;19;19923;-90
2022/08/19 07:00:05;;;;;;;;;;;25.80;49.90;;;24.36;51.18;100510.13;12238944;19;19919;-89
2022/08/19 07:04:08;;;;;;;;;;;25.80;50.10;;;24.40;51.16;100511.44;12240408;19;19914;-90
2022/08/19 07:08:09;;;;;;;;;;;25.90;50.00;;;24.41;51.62;100503.28;12238291;19;19926;-90
2022/08/19 07:12:14;;;;;;;;;;;25.90;49.80;;;24.14;51.27;100461.97;12235602;19;19923;-89
2022/08/19 07:16:19;;;;;;;;;;;26.10;49.80;;;24.61;51.69;100518.81;12239030;19;19978;-89
2022/08/19 07:20:20;;;;;;;;;;;26.20;49.70;;;24.54;51.78;100507.19;12240029;19;19922;-89
2022/08/19 07:24:24;;;;;;;;;;;26.00;49.60;;;24.57;51.54;100512.97;12239759;19;19935;-89
2022/08/19 07:28:26;;;;;;;;;;;26.00;49.80;;;24.60;51.60;100517.97;12239387;19;20381;-87
2022/08/19 07:32:27;;;;;;;;;;;26.00;49.80;;;24.66;51.43;100525.25;12236179;19;19957;-87
2022/08/19 07:36:30;;;;;;;;;;;26.10;49.80;;;24.60;51.86;100515.31;12239299;19;19911;-89
2022/08/19 07:40:32;;;;;;;;;;;26.10;50.20;;;24.72;51.75;100535.22;12238525;19;19926;-88
2022/08/19 07:44:34;;;;;;;;;;;26.10;50.30;;;24.77;51.63;100533.84;12238449;19;19915;-86
2022/08/19 07:48:42;;;;;;;;;;;26.20;50.30;;;24.56;51.70;100506.00;12235390;19;23441;-88
2022/08/19 07:52:44;;;;;;;;;;;26.20;50.40;;;24.56;51.62;100508.66;12234662;19;19927;-88
2022/08/19 07:56:45;;;;;;;;;;;26.20;50.40;;;24.82;52.02;100545.66;12238820;19;19999;-87
2022/08/19 08:00:48;;;;;;;;;;;26.40;50.40;;;24.83;51.63;100535.78;12236866;19;19918;-87
2022/08/19 08:09:22;;;;;;;;;;;26.40;50.60;;;25.04;51.94;100548.44;12237279;19;20331;-88
2022/08/19 08:13:25;;;;;;;;;;;26.40;50.80;;;25.03;51.89;100554.75;12238680;19;19923;-88
2022/08/19 08:17:28;;;;;;;;;;;26.70;50.60;;;24.93;52.11;100533.69;12235184;19;20341;-88
2022/08/19 08:21:30;;;;;;;;;;;26.50;50.70;;;25.04;51.83;100556.44;12230919;19;19923;-87
2022/08/19 08:25:32;;;;;;;;;;;26.50;50.50;;;25.14;52.16;100573.88;12238001;19;19926;-89
2022/08/19 08:29:33;;;;;;;;;;;26.60;50.70;;;25.19;52.16;100565.31;12243422;19;19919;-88
2022/08/19 08:33:35;;;;;;;;;;;26.60;50.50;;;25.01;51.91;100519.41;12250760;19;19923;-87
2022/08/19 08:37:37;;;;;;;;;;;26.60;50.80;;;25.27;52.13;100573.22;12253263;19;20250;-88
2022/08/19 08:41:46;;;;;;;;;;;26.80;50.90;;;25.33;52.21;100566.31;12248633;19;19925;-87
2022/08/19 08:45:53;;;;;;;;;;;26.70;51.00;;;25.37;52.15;100583.66;12253706;19;20314;-90
2022/08/19 08:50:12;;;;;;;;;;;26.80;51.00;;;25.27;52.21;100567.06;12251242;19;19939;-89
2022/08/19 08:54:18;;;;;;;;;;;26.80;51.10;;;25.36;52.54;100574.81;12250730;19;19915;-90
2022/08/19 08:58:30;;;;;;;;;;;26.80;51.00;;;25.47;52.05;100584.22;12251347;19;19926;-89
2022/08/19 09:02:32;;;;;;;;;;;26.90;51.00;;;25.48;52.28;100590.38;12248664;19;19914;-89
2022/08/19 09:06:39;;;;;;;;;;;26.90;51.10;;;25.54;52.11;100593.13;12250722;19;19926;-90
2022/08/19 09:10:49;;;;;;;;;;;27.00;51.10;;;25.56;52.64;100588.44;12249183;19;20275;-89
2022/08/19 09:14:55;;;;;;;;;;;27.00;51.30;;;25.61;52.16;100599.41;12252481;19;19919;-89
2022/08/19 09:19:03;;;;;;;;;;;27.10;51.30;;;25.68;52.44;100599.50;12252033;19;19918;-90
2022/08/19 09:23:05;;;;;;;;;;;27.10;51.20;;;25.68;52.34;100586.13;12244952;19;19918;-88
2022/08/19 09:27:06;;;;;;;;;;;27.10;51.20;;;25.57;52.38;100558.03;12249624;19;19929;-90
2022/08/19 09:31:09;;;;;;;;;;;27.20;51.20;;;25.59;52.43;100555.13;12247546;19;19926;-88
2022/08/19 09:35:12;;;;;;;;;;;27.20;51.20;;;25.74;52.45;100573.84;12246175;19;19919;-89
2022/08/19 09:39:13;;;;;;;;;;;27.20;51.10;;;25.79;52.22;100590.16;12248291;19;19943;-90
2022/08/19 09:43:15;;;;;;;;;;;27.30;51.20;;;25.85;52.36;100589.44;12248899;19;19919;-89
2022/08/19 09:47:17;;;;;;;;;;;27.30;51.10;;;25.68;52.70;100537.13;12250453;19;19926;-89
2022/08/19 09:51:24;;;;;;;;;;;27.30;51.00;;;25.73;52.67;100521.34;12247481;19;19927;-89
2022/08/19 09:55:25;;;;;;;;;;;27.60;51.10;;;25.77;52.63;100525.31;12247711;19;19926;-89
2022/08/19 09:59:27;;;;;;;;;;;27.40;50.80;;;25.81;52.54;100519.38;12249707;19;19923;-89
2022/08/19 10:03:30;;;;;;;;;;;27.40;51.00;;;25.59;52.52;100483.75;12251413;19;19915;-90
2022/08/19 10:07:32;;;;;;;;;;;27.50;50.80;;;25.47;52.67;100463.06;12249925;19;19926;-89
2022/08/19 10:11:34;;;;;;;;;;;27.50;50.80;;;25.92;52.53;100533.31;12250253;19;20417;-90
2022/08/19 10:15:38;;;;;;;;;;;27.60;50.60;;;26.10;52.31;100546.28;12251596;19;19944;-90
2022/08/19 10:19:40;;;;;;;;;;;27.60;50.70;;;25.91;52.77;100505.72;12247682;19;19922;-90
2022/08/19 10:23:46;;;;;;;;;;;27.40;50.70;;;26.30;52.42;100552.63;12247701;19;19943;-90
2022/08/19 10:27:47;;;;;;;;;;;27.70;51.10;;;25.99;52.40;100505.59;12248650;19;19915;-88
2022/08/19 10:31:49;;;;;;;;;;;27.70;51.10;;;26.09;52.65;100516.00;12246895;19;19922;-88
2022/08/19 10:35:59;;;;;;;;;;;27.70;51.00;;;26.30;52.85;100539.25;12247845;19;19923;-89
2022/08/19 10:40:04;;;;;;;;;;;27.80;51.00;;;26.00;52.39;100496.53;12249170;19;19918;-88
2022/08/19 10:44:09;;;;;;;;;;;27.80;51.20;;;26.18;52.79;100514.84;12248394;19;20014;-88
2022/08/19 10:48:12;;;;;;;;;;;27.80;51.30;;;26.02;52.30;100491.84;12245416;19;19911;-88
2022/08/19 11:01:05;;;;;;;;;;;27.80;51.20;;;26.36;52.89;100564.44;12242178;19;19915;-89
2022/08/19 11:05:09;;;;;;;;;;;27.80;51.30;;;25.83;52.55;100484.41;12244368;19;19934;-89
2022/08/19 11:09:11;;;;;;;;;;;27.80;51.20;;;26.33;52.90;100562.97;12243028;19;19975;-89
2022/08/19 11:13:13;;;;;;;;;;;27.80;51.30;;;26.36;52.72;100573.31;12237484;19;19956;-89
2022/08/19 11:17:15;;;;;;;;;;;27.80;51.40;;;26.23;52.58;100546.41;12244857;19;19919;-89
2022/08/19 11:21:22;;;;;;;;;;;27.80;51.40;;;26.21;52.98;100545.75;12239425;19;20265;-87
2022/08/19 11:25:23;;;;;;;;;;;27.80;51.40;;;26.35;52.98;100566.28;12248292;19;19906;-87
2022/08/19 11:29:27;;;;;;;;;;;27.80;51.40;;;26.33;52.37;100562.97;12234352;19;19927;-88
2022/08/19 11:33:32;;;;;;;;;;;27.80;51.60;;;26.42;52.96;100577.88;12239262;19;20308;-88
2022/08/19 11:37:37;;;;;;;;;;;27.80;51.40;;;26.40;52.53;100577.22;12243457;19;20294;-88
2022/08/19 11:41:38;;;;;;;;;;;27.80;51.40;;;26.26;53.14;100560.22;12239926;19;19919;-87
2022/08/19 11:45:41;;;;;;;;;;;27.80;51.40;;;26.38;52.82;100598.03;12242527;19;19919;-87
2022/08/19 11:49:42;;;;;;;;;;;27.90;51.70;;;26.25;52.83;100580.00;12244105;19;20271;-87
2022/08/19 11:53:45;;;;;;;;;;;27.80;51.60;;;26.37;53.11;100607.09;12246149;19;19929;-88
2022/08/19 11:57:46;;;;;;;;;;;27.80;51.50;;;26.32;53.05;100604.13;12247506;19;19919;-87
2022/08/19 12:01:48;;;;;;;;;;;27.80;51.60;;;25.95;52.82;100547.16;12253886;19;20397;-88
2022/08/19 12:05:50;;;;;;;;;;;27.80;51.50;;;26.31;52.87;100615.88;12267260;19;20358;-89
2022/08/19 12:09:51;;;;;;;;;;;27.80;51.60;;;26.23;52.96;100599.94;12253740;19;19911;-89
2022/08/19 12:13:53;;;;;;;;;;;27.80;51.50;;;26.16;53.33;100594.50;12253671;19;19922;-87
2022/08/19 12:17:56;;;;;;;;;;;27.80;51.60;;;26.26;52.74;100613.78;12253032;19;20370;-88
2022/08/19 12:22:01;;;;;;;;;;;27.80;51.70;;;26.22;53.09;100607.16;12249367;19;20008;-88
2022/08/19 12:26:03;;;;;;;;;;;27.80;51.40;;;26.28;52.99;100610.91;12238964;19;20332;-88
2022/08/19 12:30:08;;;;;;;;;;;27.80;52.20;;;26.34;53.21;100617.34;12249199;19;20310;-88
2022/08/19 12:34:11;;;;;;;;;;;27.80;51.90;;;26.33;53.27;100619.22;12252511;19;20368;-88
2022/08/19 12:38:14;;;;;;;;;;;27.80;52.00;;;26.08;52.92;100586.59;12251074;19;19975;-88
2022/08/19 12:42:17;;;;;;;;;;;28.00;51.90;;;26.06;53.18;100575.28;12251116;19;19929;-88
2022/08/19 12:46:19;;;;;;;;;;;27.80;51.90;;;26.32;52.91;100635.44;12255599;19;19930;-88
2022/08/19 12:50:21;;;;;;;;;;;27.80;51.80;;;26.11;53.08;100588.88;12254339;19;19921;-88
2022/08/19 12:54:23;;;;;;;;;;;27.80;51.80;;;26.10;53.26;100597.13;12256554;19;19938;-88
2022/08/19 12:58:25;;;;;;;;;;;27.70;51.80;;;25.85;53.31;100554.66;12256743;19;19974;-88
2022/08/19 13:02:27;;;;;;;;;;;27.80;51.80;;;26.26;53.17;100620.97;12252381;19;19922;-88
2022/08/19 13:06:28;;;;;;;;;;;27.80;52.30;;;26.34;52.95;100628.06;12257164;19;19918;-88
2022/08/19 13:10:35;;;;;;;;;;;27.80;51.90;;;26.29;53.18;100625.13;12254169;19;19918;-88
2022/08/19 13:14:37;;;;;;;;;;;27.80;52.00;;;26.17;53.28;100590.00;12255381;19;19910;-88
2022/08/19 13:18:40;;;;;;;;;;;27.80;52.00;;;26.35;53.18;100625.19;12253601;19;19922;-88
2022/08/19 13:22:44;;;;;;;;;;;27.80;51.70;;;26.47;53.33;100638.91;12249615;19;19931;-88
2022/08/19 13:26:45;;;;;;;;;;;27.90;51.90;;;26.43;53.49;100617.03;12252264;19;19918;-88
2022/08/19 13:35:07;;;;;;;;;;;28.00;51.70;;;26.69;53.36;100634.41;12253346;19;19919;-88
2022/08/19 13:39:09;;;;;;;;;;;28.00;52.50;;;26.61;53.48;100613.09;12251034;19;19922;-87
2022/08/19 13:43:11;;;;;;;;;;;28.10;52.40;;;26.63;53.17;100608.41;12249860;19;19991;-88
2022/08/19 13:47:14;;;;;;;;;;;28.10;52.00;;;26.43;53.24;100576.84;12249386;19;19911;-89
2022/08/19 13:51:17;;;;;;;;;;;28.30;52.20;;;26.67;53.33;100609.66;12247109;19;19925;-88
2022/08/19 13:55:19;;;;;;;;;;;28.20;52.00;;;26.80;53.11;100620.47;12251331;19;19931;-88
2022/08/19 13:59:20;;;;;;;;;;;28.20;52.10;;;26.81;52.96;100619.44;12251106;19;19918;-87
2022/08/19 14:03:22;;;;;;;;;;;28.30;52.00;;;26.89;53.21;100627.34;12247577;19;19940;-87
2022/08/19 14:07:23;;;;;;;;;;;28.30;51.90;;;26.88;53.32;100609.63;12248390;19;20404;-88
2022/08/19 14:11:25;;;;;;;;;;;28.30;51.70;;;26.80;53.29;100600.91;12247429;19;19907;-88
2022/08/19 14:15:28;;;;;;;;;;;28.30;51.70;;;26.90;53.37;100618.31;12249599;19;19932;-87
2022/08/19 14:19:29;;;;;;;;;;;28.40;51.90;;;26.90;53.28;100626.34;12249711;19;21126;-87
2022/08/19 14:23:32;;;;;;;;;;;28.30;51.80;;;26.72;53.42;100593.81;12248231;19;20012;-88
2022/08/19 14:27:35;;;;;;;;;;;28.30;51.70;;;26.92;53.41;100632.34;12249713;19;19903;-87
2022/08/19 14:31:37;;;;;;;;;;;28.40;51.80;;;26.80;52.97;100608.94;12243954;19;19949;-88
2022/08/19 14:35:38;;;;;;;;;;;28.40;51.70;;;26.93;52.94;100627.81;12245654;19;20248;-88
2022/08/19 14:39:44;;;;;;;;;;;28.30;51.50;;;26.87;52.97;100626.72;12248346;19;20356;-88
2022/08/19 14:43:48;;;;;;;;;;;28.30;51.50;;;26.75;53.40;100603.31;12244503;19;19919;-88
2022/08/19 14:47:49;;;;;;;;;;;28.40;51.70;;;26.98;53.36;100632.56;12242031;19;19922;-89
2022/08/19 14:51:51;;;;;;;;;;;28.40;51.60;;;26.92;53.17;100631.50;12242637;19;19915;-88
2022/08/19 14:55:53;;;;;;;;;;;28.50;51.70;;;26.85;52.97;100623.41;12247047;19;19919;-88
2022/08/19 14:59:56;;;;;;;;;;;28.60;51.80;;;26.96;52.92;100637.31;12242264;19;19938;-88
2022/08/19 15:03:58;;;;;;;;;;;28.40;51.60;;;26.88;53.41;100633.75;12238822;19;19922;-88
2022/08/19 15:08:03;;;;;;;;;;;28.40;51.60;;;27.00;52.95;100660.00;12242285;19;19925;-88
2022/08/19 15:12:05;;;;;;;;;;;28.40;51.50;;;26.98;53.25;100654.00;12238681;19;19915;-88
2022/08/19 15:16:07;;;;;;;;;;;28.40;51.60;;;26.96;53.08;100653.38;12241405;19;20417;-88
2022/08/19 15:20:11;;;;;;;;;;;28.50;51.60;;;26.98;53.23;100662.91;12229435;19;19926;-88
2022/08/19 15:24:12;;;;;;;;;;;28.50;51.50;;;26.82;53.22;100633.69;12239792;19;19919;-88
2022/08/19 15:28:15;;;;;;;;;;;28.50;51.50;;;27.09;53.13;100680.31;12232881;19;20257;-88
2022/08/19 15:32:16;;;;;;;;;;;28.50;51.50;;;27.02;52.94;100668.69;12235243;19;19930;-88
2022/08/19 15:36:18;;;;;;;;;;;28.70;51.50;;;26.58;52.97;100611.63;12248917;19;19956;-88
2022/08/19 15:40:20;;;;;;;;;;;28.50;51.40;;;26.71;53.35;100637.72;12248803;19;19919;-88
2022/08/19 15:44:22;;;;;;;;;;;28.50;51.30;;;26.95;53.04;100668.66;12251881;19;20272;-88
2022/08/19 15:48:23;;;;;;;;;;;28.50;51.30;;;26.96;53.03;100670.28;12252994;19;19929;-88
2022/08/19 15:52:26;;;;;;;;;;;28.50;51.40;;;27.02;53.35;100679.41;12247564;19;19919;-87
2022/08/19 16:06:24;;;;;;;;;;;28.40;51.30;;;26.95;53.05;100665.13;12253896;19;19931;-87
2022/08/19 16:09:33;;;;;;;;;;;28.30;51.30;;;26.81;53.34;100640.88;12256958;19;20267;-88
2022/08/19 16:13:35;;;;;;;;;;;28.40;51.40;;;26.79;53.11;100644.78;12254505;19;20346;-88
2022/08/19 16:17:37;;;;;;;;;;;28.30;51.60;;;26.59;53.26;100631.22;12259397;19;19914;-88
2022/08/19 16:21:38;;;;;;;;;;;28.30;51.50;;;26.68;53.34;100675.59;12256131;19;19923;-88
2022/08/19 16:25:40;;;;;;;;;;;28.40;51.70;;;26.69;53.25;100694.16;12256770;19;20268;-88
2022/08/19 16:29:41;;;;;;;;;;;28.20;51.40;;;26.61;53.27;100672.03;12256832;19;19916;-88
2022/08/19 16:33:42;;;;;;;;;;;28.20;51.50;;;26.23;53.10;100626.72;12257044;19;20325;-87
2022/08/19 16:37:44;;;;;;;;;;;28.10;51.40;;;26.66;53.40;100697.22;12260819;19;19918;-87
2022/08/19 16:41:46;;;;;;;;;;;28.10;51.40;;;26.59;53.35;100679.44;12253244;19;19919;-91
2022/08/19 16:45:49;;;;;;;;;;;28.10;51.40;;;26.53;53.04;100680.19;12256276;19;20408;-91
2022/08/19 16:49:50;;;;;;;;;;;28.10;51.40;;;26.07;53.01;100610.88;12257410;19;20354;-91
2022/08/19 16:53:52;;;;;;;;;;;27.90;51.30;;;26.35;53.45;100662.66;12256105;19;19918;-89
2022/08/19 16:57:54;;;;;;;;;;;28.20;51.50;;;26.45;53.03;100689.16;12257510;19;19910;-91
2022/08/19 17:01:55;;;;;;;;;;;27.90;51.40;;;26.12;53.23;100640.59;12253979;19;19919;-91
2022/08/19 17:06:01;;;;;;;;;;;28.20;51.60;;;26.07;53.39;100627.78;12258634;19;19910;-91
2022/08/19 17:10:04;;;;;;;;;;;27.90;51.50;;;26.33;52.93;100680.78;12254437;19;19930;-90
2022/08/19 17:14:05;;;;;;;;;;;27.90;51.60;;;26.25;53.30;100668.34;12255933;19;20242;-91
2022/08/19 17:18:09;;;;;;;;;;;27.90;52.00;;;26.28;53.23;100685.88;12258597;19;20373;-91
2022/08/19 17:22:11;;;;;;;;;;;27.80;51.60;;;26.04;53.20;100669.13;12253854;19;19922;-90
2022/08/19 17:26:14;;;;;;;;;;;27.80;51.60;;;26.22;53.15;100702.69;12256633;19;19929;-90
2022/08/19 17:30:17;;;;;;;;;;;27.80;51.60;;;26.14;53.21;100709.00;12255963;19;19910;-91
2022/08/19 17:34:18;;;;;;;;;;;27.70;51.60;;;26.14;53.62;100711.66;12257903;19;19943;-92
2022/08/19 17:38:21;;;;;;;;;;;27.70;51.70;;;26.19;53.00;100717.31;12261318;19;20330;-91
2022/08/19 17:42:23;;;;;;;;;;;27.60;51.70;;;25.68;53.21;100628.94;12253041;19;19944;-92
2022/08/19 17:46:24;;;;;;;;;;;27.60;51.70;;;25.87;53.65;100658.81;12256580;19;19919;-91
2022/08/19 17:50:26;;;;;;;;;;;27.60;51.70;;;25.85;53.55;100653.66;12251902;19;19926;-90
2022/08/19 17:54:27;;;;;;;;;;;27.60;51.70;;;25.97;53.26;100686.94;12255844;19;19923;-91
2022/08/19 17:58:28;;;;;;;;;;;27.60;51.70;;;25.71;53.37;100665.19;12251778;19;19919;-91
2022/08/19 18:02:29;;;;;;;;;;;27.60;51.70;;;26.01;53.65;100715.00;12252752;19;19929;-90
2022/08/19 18:06:31;;;;;;;;;;;27.60;51.70;;;25.90;53.55;100704.78;12256070;19;19914;-91
2022/08/19 18:10:33;;;;;;;;;;;27.60;51.60;;;25.88;53.21;100697.94;12253658;19;19915;-90
2022/08/19 18:14:37;;;;;;;;;;;27.60;51.70;;;25.96;53.34;100717.41;12254989;19;19982;-90
2022/08/19 18:18:40;;;;;;;;;;;27.50;51.80;;;25.98;53.20;100714.56;12255527;19;19915;-91
2022/08/19 18:22:45;;;;;;;;;;;27.60;52.10;;;26.14;53.22;100734.91;12252781;19;19918;-90
2022/08/19 18:26:47;;;;;;;;;;;27.50;51.80;;;25.79;53.66;100697.19;12255840;19;19930;-91
2022/08/19 18:30:49;;;;;;;;;;;27.50;51.90;;;26.03;53.30;100731.72;12252230;19;19919;-91
2022/08/19 18:34:52;;;;;;;;;;;27.60;51.90;;;25.73;53.29;100696.06;12254547;19;19922;-90
2022/08/19 18:51:39;;;;;;;;;;;27.50;51.90;;;25.96;53.61;100770.09;12250328;19;19918;-90
2022/08/19 18:55:41;;;;;;;;;;;27.40;51.90;;;25.70;53.88;100733.06;12250258;19;19919;-89
2022/08/19 18:59:45;;;;;;;;;;;27.40;52.00;;;25.89;53.62;100775.34;12247995;19;19931;-89